createdAt,value
2023-04-16T00:00:58.716Z,6.75
2023-04-16T00:05:10.471Z,6.55
2023-04-16T00:09:13.426Z,6.00
2023-04-16T00:13:16.675Z,6.68
2023-04-16T00:17:22.443Z,6.60
2023-04-16T00:21:26.704Z,6.63
2023-04-16T00:25:29.899Z,5.82
2023-04-16T00:29:33.975Z,6.88
2023-04-16T00:33:39.535Z,6.75
2023-04-16T00:37:45.875Z,5.72
2023-04-16T00:41:49.485Z,6.90
2023-04-16T00:45:53.093Z,7.07
2023-04-16T00:49:57.524Z,7.78
2023-04-16T00:54:03.186Z,7.35
2023-04-16T00:58:06.637Z,6.57
2023-04-16T01:02:13.031Z,7.05
2023-04-16T01:06:19.106Z,7.32
2023-04-16T01:10:22.419Z,7.70
2023-04-16T01:14:28.427Z,7.22
2023-04-16T01:18:31.230Z,8.10
2023-04-16T01:22:35.844Z,8.65
2023-04-16T01:26:38.628Z,8.00
2023-04-16T01:30:41.813Z,8.93
2023-04-16T01:34:45.090Z,7.20
2023-04-16T01:42:52.583Z,8.98
2023-04-16T01:46:55.450Z,6.25
2023-04-16T01:51:01.806Z,7.50
2023-04-16T01:55:06.893Z,8.88
2023-04-16T01:59:10.237Z,5.65
2023-04-16T02:03:13.708Z,7.35
2023-04-16T02:07:17.009Z,8.68
2023-04-16T02:11:21.190Z,9.55
2023-04-16T02:15:25.550Z,9.45
2023-04-16T02:19:28.918Z,9.55
2023-04-16T02:27:36.980Z,9.40
2023-04-16T02:31:40.311Z,9.75
2023-04-16T02:35:43.471Z,9.05
2023-04-16T02:39:47.638Z,9.60
2023-04-16T02:43:52.116Z,10.10
2023-04-16T02:47:55.293Z,11.10
2023-04-16T02:56:01.204Z,8.52
2023-04-16T03:00:06.434Z,10.05
2023-04-16T03:04:09.566Z,7.50
2023-04-16T03:12:15.544Z,10.13
2023-04-16T03:16:19.982Z,9.07
2023-04-16T03:20:22.896Z,11.40
2023-04-16T03:24:28.551Z,10.43
2023-04-16T03:28:31.489Z,10.10
2023-04-16T03:32:36.324Z,10.88
2023-04-16T03:36:39.457Z,11.85
2023-04-16T03:40:42.527Z,10.57
2023-04-16T03:44:45.542Z,10.02
2023-04-16T03:48:50.094Z,11.73
2023-04-16T03:52:53.017Z,10.63
2023-04-16T03:56:57.341Z,10.55
2023-04-16T04:01:00.454Z,11.18
2023-04-16T04:05:07.849Z,10.73
2023-04-16T04:09:13.691Z,11.43
2023-04-16T04:13:16.476Z,11.27
2023-04-16T04:17:19.623Z,11.05
2023-04-16T04:21:24.118Z,11.85
2023-04-16T04:25:27.449Z,10.88
2023-04-16T04:29:31.862Z,11.45
2023-04-16T04:33:35.089Z,12.10
2023-04-16T04:37:39.798Z,10.95
2023-04-16T04:41:43.083Z,12.60
2023-04-16T04:45:46.125Z,10.63
2023-04-16T04:49:51.710Z,10.35
2023-04-16T04:53:55.749Z,9.85
2023-04-16T04:58:01.237Z,10.05
2023-04-16T05:02:04.519Z,10.20
2023-04-16T05:06:08.488Z,10.25
2023-04-16T05:10:12.989Z,11.23
2023-04-16T05:14:15.795Z,9.68
2023-04-16T05:18:18.886Z,10.23
2023-04-16T05:22:21.846Z,11.35
2023-04-16T05:26:25.983Z,10.27
2023-04-16T05:30:28.950Z,9.77
2023-04-16T05:38:36.264Z,9.27
2023-04-16T05:42:40.785Z,7.70
2023-04-16T05:46:43.713Z,9.88
2023-04-16T05:50:48.924Z,8.07
2023-04-16T05:54:51.730Z,10.10
2023-04-16T05:58:56.012Z,8.73
2023-04-16T06:02:59.446Z,7.95
2023-04-16T06:07:02.859Z,9.95
2023-04-16T06:11:06.888Z,9.13
2023-04-16T06:15:13.484Z,8.98
2023-04-16T06:19:16.810Z,8.88
2023-04-16T06:23:19.935Z,9.43
2023-04-16T06:31:27.148Z,9.10
2023-04-16T06:35:30.315Z,11.20
2023-04-16T06:43:36.288Z,10.18
2023-04-16T06:47:40.711Z,9.27
2023-04-16T06:51:43.659Z,10.20
2023-04-16T06:55:46.341Z,9.70
2023-04-16T06:59:49.525Z,10.30
2023-04-16T07:03:54.155Z,9.02
2023-04-16T07:07:57.863Z,9.52
2023-04-16T07:12:01.114Z,9.25
2023-04-16T07:16:03.488Z,9.10
2023-04-16T07:20:11.157Z,8.98
2023-04-16T07:24:14.122Z,9.20
2023-04-16T07:28:17.803Z,9.05
2023-04-16T07:32:22.733Z,8.05
2023-04-16T07:36:27.673Z,7.32
2023-04-16T07:40:33.424Z,7.78
2023-04-16T07:44:36.496Z,7.55
2023-04-16T07:48:39.285Z,7.07
2023-04-16T07:52:48.172Z,8.82
2023-04-16T07:56:51.222Z,7.53
2023-04-16T08:00:54.521Z,6.68
2023-04-16T08:04:58.119Z,7.25
2023-04-16T08:09:02.708Z,7.05
2023-04-16T08:13:06.129Z,6.20
2023-04-16T08:17:09.406Z,6.90
2023-04-16T08:21:13.716Z,5.97
2023-04-16T08:25:18.805Z,6.65
2023-04-16T08:29:22.007Z,5.82
2023-04-16T08:33:25.305Z,6.72
2023-04-16T08:37:28.562Z,5.88
2023-04-16T08:41:34.472Z,6.47
2023-04-16T08:45:38.236Z,6.85
2023-04-16T08:49:45.489Z,7.03
2023-04-16T08:53:53.287Z,5.63
2023-04-16T08:58:02.444Z,5.45
2023-04-16T09:02:07.723Z,6.68
2023-04-16T09:06:11.595Z,6.50
2023-04-16T09:10:17.282Z,6.50
2023-04-16T09:14:22.299Z,6.57
2023-04-16T09:18:28.350Z,6.00
2023-04-16T09:22:31.185Z,6.43
2023-04-16T09:30:39.138Z,6.05
2023-04-16T09:34:59.532Z,6.28
2023-04-16T09:39:04.073Z,5.50
2023-04-16T09:43:13.021Z,5.63
2023-04-16T09:47:17.256Z,6.82
2023-04-16T09:51:20.443Z,6.38
2023-04-16T09:55:24.995Z,5.95
2023-04-16T09:59:31.375Z,6.50
2023-04-16T10:03:37.264Z,6.10
2023-04-16T10:07:40.703Z,5.95
2023-04-16T10:11:46.143Z,6.38
2023-04-16T10:15:50.076Z,6.75
2023-04-16T10:19:59.169Z,6.45
2023-04-16T10:24:02.775Z,6.32
2023-04-16T10:28:07.503Z,6.63
2023-04-16T10:32:10.970Z,7.05
2023-04-16T10:36:16.027Z,6.32
2023-04-16T10:40:26.888Z,6.47
2023-04-16T10:44:35.644Z,5.35
2023-04-16T10:48:49.645Z,6.18
2023-04-16T10:53:34.865Z,6.97
2023-04-16T10:57:37.910Z,6.53
2023-04-16T11:01:44.397Z,7.82
2023-04-16T11:05:50.156Z,7.30
2023-04-16T11:09:56.940Z,6.85
2023-04-16T11:14:00.140Z,6.80
2023-04-16T11:18:04.240Z,7.20
2023-04-16T11:22:07.124Z,7.30
2023-04-16T11:30:32.025Z,6.60
2023-04-16T11:34:35.346Z,7.50
2023-04-16T11:38:41.266Z,7.65
2023-04-16T11:42:45.559Z,8.25
2023-04-16T11:46:48.663Z,6.68
2023-04-16T11:50:58.282Z,6.57
2023-04-16T11:55:01.756Z,6.05
2023-04-16T11:59:11.488Z,6.70
2023-04-16T12:03:17.670Z,6.03
2023-04-16T12:07:20.826Z,5.65
2023-04-16T12:11:38.636Z,5.55
2023-04-16T12:15:51.118Z,5.90
2023-04-16T12:19:58.395Z,5.72
2023-04-16T12:24:01.482Z,7.72
2023-04-16T12:28:04.763Z,6.05
2023-04-16T12:32:22.675Z,7.00
2023-04-16T12:36:26.471Z,5.95
2023-04-16T12:40:29.798Z,5.40
2023-04-16T12:44:32.883Z,5.60
2023-04-16T12:48:38.299Z,5.38
2023-04-16T12:52:41.339Z,5.82
2023-04-16T12:56:44.223Z,6.15
2023-04-16T13:00:47.062Z,6.18
2023-04-16T13:04:51.480Z,6.00
2023-04-16T13:08:56.697Z,5.90
2023-04-16T13:12:59.522Z,5.47
2023-04-16T13:17:05.187Z,6.63
2023-04-16T13:21:10.142Z,6.22
2023-04-16T13:25:13.179Z,5.25
2023-04-16T13:29:16.016Z,5.47
2023-04-16T13:33:22.278Z,5.32
2023-04-16T13:37:26.786Z,5.93
2023-04-16T13:41:29.539Z,5.60
2023-04-16T13:45:32.705Z,5.45
2023-04-16T13:49:38.466Z,6.10
2023-04-16T13:53:43.311Z,6.80
2023-04-16T13:57:47.651Z,6.47
2023-04-16T14:01:50.786Z,6.43
2023-04-16T14:05:54.106Z,6.35
2023-04-16T14:09:58.785Z,6.25
2023-04-16T14:14:02.005Z,6.18
2023-04-16T14:18:05.279Z,6.35
2023-04-16T14:22:09.381Z,7.72
2023-04-16T14:26:14.141Z,7.60
2023-04-16T14:30:17.324Z,8.40
2023-04-16T14:34:19.906Z,7.18
2023-04-16T14:42:33.267Z,7.50
2023-04-16T14:46:38.811Z,8.15
2023-04-16T14:50:44.290Z,7.68
2023-04-16T14:54:49.118Z,7.15
2023-04-16T14:58:53.834Z,7.70
2023-04-16T15:02:56.885Z,8.05
2023-04-16T15:07:00.470Z,7.90
2023-04-16T15:11:03.796Z,7.10
2023-04-16T15:15:12.094Z,7.65
2023-04-16T15:19:15.406Z,8.02
2023-04-16T15:23:18.487Z,6.75
2023-04-16T15:27:21.573Z,8.40
2023-04-16T15:31:26.526Z,8.13
2023-04-16T15:35:29.996Z,7.82
2023-04-16T15:39:33.323Z,7.68
2023-04-16T15:43:37.748Z,7.53
2023-04-16T15:47:42.528Z,6.22
2023-04-16T15:51:45.416Z,7.97
2023-04-16T15:55:49.896Z,7.88
2023-04-16T16:00:06.039Z,6.90
2023-04-16T16:04:11.618Z,9.05
2023-04-16T16:08:18.627Z,8.05
2023-04-16T16:12:21.445Z,8.13
2023-04-16T16:16:24.569Z,8.32
2023-04-16T16:20:32.250Z,7.88
2023-04-16T16:24:35.793Z,7.50
2023-04-16T16:28:43.970Z,8.35
2023-04-16T16:32:49.604Z,8.35
2023-04-16T16:36:54.118Z,8.63
2023-04-16T16:40:57.175Z,8.40
2023-04-16T16:44:59.967Z,8.20
2023-04-16T16:53:10.021Z,8.27
2023-04-16T16:57:18.580Z,8.18
2023-04-16T17:01:21.426Z,7.68
2023-04-16T17:05:25.928Z,9.10
2023-04-16T17:09:30.365Z,8.35
2023-04-16T17:13:34.555Z,7.43
2023-04-16T17:17:41.897Z,9.23
2023-04-16T17:21:44.753Z,9.43
2023-04-16T17:25:49.205Z,8.55
2023-04-16T17:29:55.913Z,9.18
2023-04-16T17:34:00.381Z,10.40
2023-04-16T17:38:03.632Z,9.57
2023-04-16T17:42:08.032Z,10.20
2023-04-16T17:46:15.045Z,10.55
2023-04-16T17:50:18.109Z,9.82
2023-04-16T17:54:21.312Z,10.25
2023-04-16T17:58:26.629Z,9.57
2023-04-16T18:02:32.392Z,10.95
2023-04-16T18:06:38.354Z,11.57
2023-04-16T18:10:43.248Z,10.88
2023-04-16T18:14:47.792Z,11.75
2023-04-16T18:18:51.030Z,11.15
2023-04-16T18:22:54.175Z,12.32
2023-04-16T18:31:05.716Z,10.57
2023-04-16T18:35:09.518Z,12.35
2023-04-16T18:39:14.473Z,11.55
2023-04-16T18:43:27.906Z,11.50
2023-04-16T18:47:32.263Z,11.18
2023-04-16T18:51:35.608Z,12.75
2023-04-16T18:55:38.524Z,11.20
2023-04-16T18:59:41.341Z,11.90
2023-04-16T19:03:45.666Z,10.93
2023-04-16T19:07:48.971Z,12.32
2023-04-16T19:11:51.852Z,10.20
2023-04-16T19:16:00.067Z,11.60
2023-04-16T19:20:08.102Z,11.77
2023-04-16T19:24:13.661Z,11.25
2023-04-16T19:28:17.196Z,9.95
2023-04-16T19:32:20.151Z,11.05
2023-04-16T19:36:25.002Z,12.48
2023-04-16T19:40:28.120Z,11.05
2023-04-16T19:44:32.578Z,11.80
2023-04-16T19:48:37.317Z,11.45
2023-04-16T19:52:41.354Z,12.02
2023-04-16T19:56:46.709Z,12.10
2023-04-16T20:00:51.568Z,11.93
2023-04-16T20:04:54.558Z,12.05
2023-04-16T20:09:01.655Z,12.02
2023-04-16T20:13:05.125Z,13.15
2023-04-16T20:17:10.339Z,11.70
2023-04-16T20:21:16.883Z,12.32
2023-04-16T20:25:22.827Z,12.43
2023-04-16T20:29:25.862Z,11.27
2023-04-16T20:33:31.267Z,13.23
2023-04-16T20:37:38.297Z,14.65
2023-04-16T20:41:44.439Z,12.43
2023-04-16T20:45:47.676Z,13.70
2023-04-16T20:49:50.926Z,14.15
2023-04-16T20:58:04.235Z,12.43
2023-04-16T21:02:09.464Z,12.38
2023-04-16T21:06:14.861Z,11.98
2023-04-16T21:10:20.491Z,14.38
2023-04-16T21:14:25.230Z,12.75
2023-04-16T21:18:28.403Z,12.88
2023-04-16T21:22:31.348Z,12.80
2023-04-16T21:26:34.246Z,12.45
2023-04-16T21:30:39.096Z,13.23
2023-04-16T21:34:42.403Z,14.05
2023-04-16T21:38:45.718Z,12.57
2023-04-16T21:42:49.007Z,13.80
2023-04-16T21:50:58.299Z,13.07
2023-04-16T21:55:01.296Z,13.00
2023-04-16T21:59:04.027Z,11.95
2023-04-16T22:03:09.171Z,14.85
2023-04-16T22:07:12.295Z,14.35
2023-04-16T22:11:24.710Z,12.80
2023-04-16T22:15:37.124Z,14.07
2023-04-16T22:19:42.550Z,15.02
2023-04-16T22:23:49.687Z,14.63
2023-04-16T22:27:56.310Z,13.38
2023-04-16T22:32:02.405Z,12.48
2023-04-16T22:36:07.680Z,13.57
2023-04-16T22:40:14.394Z,13.38
2023-04-16T22:44:17.174Z,11.77
2023-04-16T22:48:20.025Z,13.13
2023-04-16T22:52:24.534Z,13.13
2023-04-16T22:56:29.101Z,12.60
2023-04-16T23:00:32.230Z,14.40
2023-04-16T23:04:35.259Z,14.20
2023-04-16T23:08:42.192Z,15.07
2023-04-16T23:12:45.089Z,14.85
2023-04-16T23:16:48.160Z,14.73
2023-04-16T23:20:53.103Z,14.25
2023-04-16T23:24:57.260Z,14.63
2023-04-16T23:29:00.753Z,14.07
2023-04-16T23:33:04.718Z,13.98
2023-04-16T23:37:07.584Z,13.70
2023-04-16T23:41:12.072Z,13.45
2023-04-16T23:45:14.960Z,14.63
2023-04-16T23:49:17.696Z,14.07
2023-04-16T23:53:20.964Z,15.32
2023-04-16T23:57:25.166Z,14.88
